sensor_id;sensor_type;location;lat;lon;timestamp;P1;durP1;ratioP1;P2;durP2;ratioP2
20008;SDS011;10165;42.662;23.260;2022-09-27T00:00:39;9.53;;;6.93;;
20008;SDS011;10165;42.662;23.260;2022-09-27T00:03:09;8.90;;;6.93;;
20008;SDS011;10165;42.662;23.260;2022-09-27T00:05:37;7.87;;;6.80;;
20008;SDS011;10165;42.662;23.260;2022-09-27T00:08:04;11.17;;;7.17;;
20008;SDS011;10165;42.662;23.260;2022-09-27T00:10:31;14.23;;;8.03;;
20008;SDS011;10165;42.662;23.260;2022-09-27T00:12:58;10.03;;;7.80;;
20008;SDS011;10165;42.662;23.260;2022-09-27T00:15:25;9.80;;;7.37;;
20008;SDS011;10165;42.662;23.260;2022-09-27T00:17:51;8.53;;;6.83;;
20008;SDS011;10165;42.662;23.260;2022-09-27T00:20:19;12.43;;;7.53;;
20008;SDS011;10165;42.662;23.260;2022-09-27T00:22:46;10.50;;;7.53;;
20008;SDS011;10165;42.662;23.260;2022-09-27T00:25:14;9.60;;;7.13;;
20008;SDS011;10165;42.662;23.260;2022-09-27T00:27:43;10.00;;;6.50;;
20008;SDS011;10165;42.662;23.260;2022-09-27T00:30:10;8.07;;;6.70;;
20008;SDS011;10165;42.662;23.260;2022-09-27T00:32:38;10.33;;;6.37;;
20008;SDS011;10165;42.662;23.260;2022-09-27T00:35:04;8.27;;;6.83;;
20008;SDS011;10165;42.662;23.260;2022-09-27T00:37:31;7.60;;;6.40;;
20008;SDS011;10165;42.662;23.260;2022-09-27T00:39:58;7.83;;;6.90;;
20008;SDS011;10165;42.662;23.260;2022-09-27T00:42:25;8.30;;;7.13;;
20008;SDS011;10165;42.662;23.260;2022-09-27T00:50:34;11.43;;;7.63;;
20008;SDS011;10165;42.662;23.260;2022-09-27T00:55:44;11.87;;;7.33;;
20008;SDS011;10165;42.662;23.260;2022-09-27T00:58:18;11.80;;;7.73;;
20008;SDS011;10165;42.662;23.260;2022-09-27T01:00:51;9.33;;;7.07;;
20008;SDS011;10165;42.662;23.260;2022-09-27T01:03:27;9.73;;;7.40;;
20008;SDS011;10165;42.662;23.260;2022-09-27T01:06:01;8.37;;;6.53;;
20008;SDS011;10165;42.662;23.260;2022-09-27T01:08:33;10.60;;;7.30;;
20008;SDS011;10165;42.662;23.260;2022-09-27T01:11:08;10.37;;;7.67;;
20008;SDS011;10165;42.662;23.260;2022-09-27T01:20:06;9.60;;;6.60;;
20008;SDS011;10165;42.662;23.260;2022-09-27T01:22:29;8.70;;;6.20;;
20008;SDS011;10165;42.662;23.260;2022-09-27T01:27:48;8.83;;;6.80;;
20008;SDS011;10165;42.662;23.260;2022-09-27T01:30:39;12.90;;;6.53;;
20008;SDS011;10165;42.662;23.260;2022-09-27T01:33:28;8.10;;;5.83;;
20008;SDS011;10165;42.662;23.260;2022-09-27T01:41:19;7.47;;;5.93;;
20008;SDS011;10165;42.662;23.260;2022-09-27T01:46:32;9.53;;;6.33;;
20008;SDS011;10165;42.662;23.260;2022-09-27T01:49:14;7.97;;;6.20;;
20008;SDS011;10165;42.662;23.260;2022-09-27T01:51:44;9.53;;;6.17;;
20008;SDS011;10165;42.662;23.260;2022-09-27T01:54:18;10.27;;;5.93;;
20008;SDS011;10165;42.662;23.260;2022-09-27T01:56:53;8.53;;;6.07;;
20008;SDS011;10165;42.662;23.260;2022-09-27T01:59:24;8.37;;;5.70;;
20008;SDS011;10165;42.662;23.260;2022-09-27T02:01:59;7.27;;;6.20;;
20008;SDS011;10165;42.662;23.260;2022-09-27T02:04:32;8.23;;;5.90;;
20008;SDS011;10165;42.662;23.260;2022-09-27T02:07:07;9.83;;;6.57;;
20008;SDS011;10165;42.662;23.260;2022-09-27T02:09:47;8.33;;;5.83;;
20008;SDS011;10165;42.662;23.260;2022-09-27T02:12:19;9.80;;;6.20;;
20008;SDS011;10165;42.662;23.260;2022-09-27T02:14:53;9.13;;;6.20;;
20008;SDS011;10165;42.662;23.260;2022-09-27T02:17:30;7.10;;;6.10;;
20008;SDS011;10165;42.662;23.260;2022-09-27T02:22:49;7.10;;;5.93;;
20008;SDS011;10165;42.662;23.260;2022-09-27T02:31:06;10.27;;;6.53;;
20008;SDS011;10165;42.662;23.260;2022-09-27T02:33:38;9.03;;;6.10;;
20008;SDS011;10165;42.662;23.260;2022-09-27T02:36:10;9.17;;;6.73;;
20008;SDS011;10165;42.662;23.260;2022-09-27T02:38:37;10.33;;;6.80;;
20008;SDS011;10165;42.662;23.260;2022-09-27T02:41:14;10.03;;;5.63;;
20008;SDS011;10165;42.662;23.260;2022-09-27T02:43:43;8.07;;;6.00;;
20008;SDS011;10165;42.662;23.260;2022-09-27T02:59:58;6.10;;;5.33;;
20008;SDS011;10165;42.662;23.260;2022-09-27T03:05:16;7.30;;;6.07;;
20008;SDS011;10165;42.662;23.260;2022-09-27T03:07:47;6.30;;;5.57;;
20008;SDS011;10165;42.662;23.260;2022-09-27T03:10:15;6.80;;;6.10;;
20008;SDS011;10165;42.662;23.260;2022-09-27T03:12:44;7.03;;;5.13;;
20008;SDS011;10165;42.662;23.260;2022-09-27T03:15:11;6.40;;;5.80;;
20008;SDS011;10165;42.662;23.260;2022-09-27T03:17:38;11.63;;;6.60;;
20008;SDS011;10165;42.662;23.260;2022-09-27T03:20:05;7.63;;;5.80;;
20008;SDS011;10165;42.662;23.260;2022-09-27T03:22:33;8.53;;;5.93;;
20008;SDS011;10165;42.662;23.260;2022-09-27T03:25:00;7.30;;;5.97;;
20008;SDS011;10165;42.662;23.260;2022-09-27T03:27:27;7.07;;;5.37;;
20008;SDS011;10165;42.662;23.260;2022-09-27T03:29:53;8.33;;;6.33;;
20008;SDS011;10165;42.662;23.260;2022-09-27T03:32:20;10.50;;;7.40;;
20008;SDS011;10165;42.662;23.260;2022-09-27T03:34:47;12.00;;;7.17;;
20008;SDS011;10165;42.662;23.260;2022-09-27T03:37:14;8.70;;;6.57;;
20008;SDS011;10165;42.662;23.260;2022-09-27T03:39:40;10.37;;;7.10;;
20008;SDS011;10165;42.662;23.260;2022-09-27T03:42:07;8.97;;;7.43;;
20008;SDS011;10165;42.662;23.260;2022-09-27T03:44:34;10.07;;;7.70;;
20008;SDS011;10165;42.662;23.260;2022-09-27T03:47:00;10.03;;;7.57;;
20008;SDS011;10165;42.662;23.260;2022-09-27T03:49:27;13.10;;;7.27;;
20008;SDS011;10165;42.662;23.260;2022-09-27T03:51:54;9.10;;;7.50;;
20008;SDS011;10165;42.662;23.260;2022-09-27T03:54:21;15.63;;;8.60;;
20008;SDS011;10165;42.662;23.260;2022-09-27T03:56:47;10.13;;;8.43;;
20008;SDS011;10165;42.662;23.260;2022-09-27T03:59:14;13.50;;;9.13;;
20008;SDS011;10165;42.662;23.260;2022-09-27T04:01:41;13.30;;;8.70;;
20008;SDS011;10165;42.662;23.260;2022-09-27T04:04:09;12.93;;;8.87;;
20008;SDS011;10165;42.662;23.260;2022-09-27T04:06:36;12.43;;;9.17;;
20008;SDS011;10165;42.662;23.260;2022-09-27T04:09:03;14.80;;;9.70;;
20008;SDS011;10165;42.662;23.260;2022-09-27T04:11:30;11.73;;;8.70;;
20008;SDS011;10165;42.662;23.260;2022-09-27T04:13:56;14.17;;;8.67;;
20008;SDS011;10165;42.662;23.260;2022-09-27T04:16:24;11.07;;;8.67;;
20008;SDS011;10165;42.662;23.260;2022-09-27T04:18:50;13.43;;;9.43;;
20008;SDS011;10165;42.662;23.260;2022-09-27T04:21:17;12.10;;;8.67;;
20008;SDS011;10165;42.662;23.260;2022-09-27T04:23:45;13.03;;;9.33;;
20008;SDS011;10165;42.662;23.260;2022-09-27T04:26:12;15.80;;;10.00;;
20008;SDS011;10165;42.662;23.260;2022-09-27T04:28:39;13.73;;;9.73;;
20008;SDS011;10165;42.662;23.260;2022-09-27T04:31:06;12.30;;;10.37;;
20008;SDS011;10165;42.662;23.260;2022-09-27T04:33:33;14.47;;;10.00;;
20008;SDS011;10165;42.662;23.260;2022-09-27T04:35:59;12.20;;;9.20;;
20008;SDS011;10165;42.662;23.260;2022-09-27T04:38:45;12.73;;;9.70;;
20008;SDS011;10165;42.662;23.260;2022-09-27T04:41:11;21.47;;;11.03;;
20008;SDS011;10165;42.662;23.260;2022-09-27T04:43:38;13.17;;;9.90;;
20008;SDS011;10165;42.662;23.260;2022-09-27T04:46:05;13.23;;;9.63;;
20008;SDS011;10165;42.662;23.260;2022-09-27T04:48:32;15.67;;;10.00;;
20008;SDS011;10165;42.662;23.260;2022-09-27T04:51:00;12.80;;;9.83;;
20008;SDS011;10165;42.662;23.260;2022-09-27T04:53:28;13.47;;;9.50;;
20008;SDS011;10165;42.662;23.260;2022-09-27T04:55:58;17.43;;;11.77;;
20008;SDS011;10165;42.662;23.260;2022-09-27T04:58:27;16.80;;;12.27;;
20008;SDS011;10165;42.662;23.260;2022-09-27T05:00:55;15.67;;;11.07;;
20008;SDS011;10165;42.662;23.260;2022-09-27T05:03:21;23.13;;;11.07;;
20008;SDS011;10165;42.662;23.260;2022-09-27T05:05:48;19.97;;;11.03;;
20008;SDS011;10165;42.662;23.260;2022-09-27T05:08:15;20.63;;;10.63;;
20008;SDS011;10165;42.662;23.260;2022-09-27T05:10:42;14.57;;;10.63;;
20008;SDS011;10165;42.662;23.260;2022-09-27T05:13:09;17.30;;;12.63;;
20008;SDS011;10165;42.662;23.260;2022-09-27T05:15:35;16.73;;;11.20;;
20008;SDS011;10165;42.662;23.260;2022-09-27T05:18:02;17.10;;;11.47;;
20008;SDS011;10165;42.662;23.260;2022-09-27T05:20:29;18.97;;;11.70;;
20008;SDS011;10165;42.662;23.260;2022-09-27T05:22:55;19.10;;;12.17;;
20008;SDS011;10165;42.662;23.260;2022-09-27T05:25:22;15.33;;;10.90;;
20008;SDS011;10165;42.662;23.260;2022-09-27T05:27:49;23.50;;;15.90;;
20008;SDS011;10165;42.662;23.260;2022-09-27T05:30:16;18.87;;;11.73;;
20008;SDS011;10165;42.662;23.260;2022-09-27T05:32:43;19.30;;;11.20;;
20008;SDS011;10165;42.662;23.260;2022-09-27T05:35:15;16.17;;;11.83;;
20008;SDS011;10165;42.662;23.260;2022-09-27T05:37:54;15.80;;;12.17;;
20008;SDS011;10165;42.662;23.260;2022-09-27T05:40:22;17.07;;;11.60;;
20008;SDS011;10165;42.662;23.260;2022-09-27T05:43:07;15.23;;;11.80;;
20008;SDS011;10165;42.662;23.260;2022-09-27T05:45:34;18.90;;;13.57;;
20008;SDS011;10165;42.662;23.260;2022-09-27T05:48:01;16.43;;;11.83;;
20008;SDS011;10165;42.662;23.260;2022-09-27T05:50:28;13.73;;;10.50;;
20008;SDS011;10165;42.662;23.260;2022-09-27T05:52:55;16.00;;;11.03;;
20008;SDS011;10165;42.662;23.260;2022-09-27T05:55:21;15.77;;;10.57;;
20008;SDS011;10165;42.662;23.260;2022-09-27T06:00:26;15.37;;;11.03;;
20008;SDS011;10165;42.662;23.260;2022-09-27T06:03:04;17.83;;;12.87;;
20008;SDS011;10165;42.662;23.260;2022-09-27T06:05:34;15.50;;;11.13;;
20008;SDS011;10165;42.662;23.260;2022-09-27T06:08:03;16.00;;;10.70;;
20008;SDS011;10165;42.662;23.260;2022-09-27T06:10:32;14.63;;;10.63;;
20008;SDS011;10165;42.662;23.260;2022-09-27T06:13:09;15.27;;;10.53;;
20008;SDS011;10165;42.662;23.260;2022-09-27T06:15:40;14.77;;;10.83;;
20008;SDS011;10165;42.662;23.260;2022-09-27T06:18:08;15.20;;;11.37;;
20008;SDS011;10165;42.662;23.260;2022-09-27T06:20:41;17.13;;;11.60;;
20008;SDS011;10165;42.662;23.260;2022-09-27T06:23:41;15.97;;;10.90;;
20008;SDS011;10165;42.662;23.260;2022-09-27T06:26:04;14.93;;;11.47;;
20008;SDS011;10165;42.662;23.260;2022-09-27T06:28:33;14.53;;;10.17;;
20008;SDS011;10165;42.662;23.260;2022-09-27T06:31:06;13.83;;;9.93;;
20008;SDS011;10165;42.662;23.260;2022-09-27T06:33:34;13.67;;;9.80;;
20008;SDS011;10165;42.662;23.260;2022-09-27T06:36:01;12.93;;;10.07;;
20008;SDS011;10165;42.662;23.260;2022-09-27T06:38:29;14.77;;;9.83;;
20008;SDS011;10165;42.662;23.260;2022-09-27T06:40:59;14.27;;;10.07;;
20008;SDS011;10165;42.662;23.260;2022-09-27T06:43:27;13.47;;;10.63;;
20008;SDS011;10165;42.662;23.260;2022-09-27T06:45:54;13.43;;;10.80;;
20008;SDS011;10165;42.662;23.260;2022-09-27T06:48:21;14.70;;;11.27;;
20008;SDS011;10165;42.662;23.260;2022-09-27T06:50:48;14.10;;;10.90;;
20008;SDS011;10165;42.662;23.260;2022-09-27T06:53:15;14.73;;;10.83;;
20008;SDS011;10165;42.662;23.260;2022-09-27T06:55:42;16.73;;;11.23;;
20008;SDS011;10165;42.662;23.260;2022-09-27T06:58:09;12.53;;;9.37;;
20008;SDS011;10165;42.662;23.260;2022-09-27T07:00:55;14.70;;;9.47;;
20008;SDS011;10165;42.662;23.260;2022-09-27T07:03:24;15.00;;;9.33;;
20008;SDS011;10165;42.662;23.260;2022-09-27T07:06:02;11.97;;;9.80;;
20008;SDS011;10165;42.662;23.260;2022-09-27T07:08:31;15.30;;;9.33;;
20008;SDS011;10165;42.662;23.260;2022-09-27T07:11:03;18.70;;;12.03;;
20008;SDS011;10165;42.662;23.260;2022-09-27T07:13:31;19.07;;;11.70;;
20008;SDS011;10165;42.662;23.260;2022-09-27T07:16:00;16.60;;;11.57;;
20008;SDS011;10165;42.662;23.260;2022-09-27T07:18:27;13.70;;;11.13;;
20008;SDS011;10165;42.662;23.260;2022-09-27T07:20:54;17.43;;;12.37;;
20008;SDS011;10165;42.662;23.260;2022-09-27T07:23:25;15.57;;;11.07;;
20008;SDS011;10165;42.662;23.260;2022-09-27T07:25:52;16.23;;;11.80;;
20008;SDS011;10165;42.662;23.260;2022-09-27T07:28:19;16.77;;;12.60;;
20008;SDS011;10165;42.662;23.260;2022-09-27T07:30:47;20.67;;;11.83;;
20008;SDS011;10165;42.662;23.260;2022-09-27T07:33:14;15.17;;;11.93;;
20008;SDS011;10165;42.662;23.260;2022-09-27T07:35:41;17.43;;;12.70;;
20008;SDS011;10165;42.662;23.260;2022-09-27T07:38:09;22.20;;;12.27;;
20008;SDS011;10165;42.662;23.260;2022-09-27T07:40:39;19.90;;;12.03;;
20008;SDS011;10165;42.662;23.260;2022-09-27T07:43:07;20.03;;;13.83;;
20008;SDS011;10165;42.662;23.260;2022-09-27T07:45:34;21.43;;;14.30;;
20008;SDS011;10165;42.662;23.260;2022-09-27T07:48:05;20.37;;;14.13;;
20008;SDS011;10165;42.662;23.260;2022-09-27T07:50:32;21.23;;;14.00;;
20008;SDS011;10165;42.662;23.260;2022-09-27T07:53:00;17.70;;;13.33;;
20008;SDS011;10165;42.662;23.260;2022-09-27T07:55:26;21.00;;;14.77;;
20008;SDS011;10165;42.662;23.260;2022-09-27T07:58:00;27.43;;;16.60;;
20008;SDS011;10165;42.662;23.260;2022-09-27T08:00:29;27.27;;;17.00;;
20008;SDS011;10165;42.662;23.260;2022-09-27T08:02:55;27.00;;;16.73;;
20008;SDS011;10165;42.662;23.260;2022-09-27T08:05:22;25.00;;;17.07;;
20008;SDS011;10165;42.662;23.260;2022-09-27T08:07:53;24.40;;;16.33;;
20008;SDS011;10165;42.662;23.260;2022-09-27T08:10:22;24.97;;;15.67;;
20008;SDS011;10165;42.662;23.260;2022-09-27T08:12:50;22.40;;;14.73;;
20008;SDS011;10165;42.662;23.260;2022-09-27T08:15:17;23.23;;;14.97;;
20008;SDS011;10165;42.662;23.260;2022-09-27T08:17:44;20.17;;;14.67;;
20008;SDS011;10165;42.662;23.260;2022-09-27T08:20:10;21.97;;;15.67;;
20008;SDS011;10165;42.662;23.260;2022-09-27T08:22:39;21.60;;;13.37;;
20008;SDS011;10165;42.662;23.260;2022-09-27T08:25:07;22.00;;;14.10;;
20008;SDS011;10165;42.662;23.260;2022-09-27T08:27:35;19.30;;;13.87;;
20008;SDS011;10165;42.662;23.260;2022-09-27T08:30:02;22.63;;;15.27;;
20008;SDS011;10165;42.662;23.260;2022-09-27T08:32:29;21.10;;;15.77;;
20008;SDS011;10165;42.662;23.260;2022-09-27T08:34:56;23.10;;;15.63;;
20008;SDS011;10165;42.662;23.260;2022-09-27T08:37:24;20.33;;;15.67;;
20008;SDS011;10165;42.662;23.260;2022-09-27T08:39:52;23.50;;;16.70;;
20008;SDS011;10165;42.662;23.260;2022-09-27T08:47:48;31.77;;;16.60;;
20008;SDS011;10165;42.662;23.260;2022-09-27T08:50:24;21.33;;;15.33;;
20008;SDS011;10165;42.662;23.260;2022-09-27T08:52:58;22.47;;;16.90;;
20008;SDS011;10165;42.662;23.260;2022-09-27T08:58:15;24.80;;;16.07;;
20008;SDS011;10165;42.662;23.260;2022-09-27T09:00:50;24.50;;;16.33;;
20008;SDS011;10165;42.662;23.260;2022-09-27T09:03:21;20.93;;;14.97;;
20008;SDS011;10165;42.662;23.260;2022-09-27T09:11:48;19.50;;;14.23;;
20008;SDS011;10165;42.662;23.260;2022-09-27T09:17:26;23.90;;;14.87;;
20008;SDS011;10165;42.662;23.260;2022-09-27T09:20:20;18.77;;;14.10;;
20008;SDS011;10165;42.662;23.260;2022-09-27T09:31:54;17.20;;;12.17;;
20008;SDS011;10165;42.662;23.260;2022-09-27T09:34:41;16.07;;;12.10;;
20008;SDS011;10165;42.662;23.260;2022-09-27T09:39:57;14.63;;;11.20;;
20008;SDS011;10165;42.662;23.260;2022-09-27T09:42:36;18.00;;;11.53;;
20008;SDS011;10165;42.662;23.260;2022-09-27T09:45:14;14.70;;;12.13;;
20008;SDS011;10165;42.662;23.260;2022-09-27T09:48:08;14.10;;;11.07;;
20008;SDS011;10165;42.662;23.260;2022-09-27T09:50:42;14.97;;;10.30;;
20008;SDS011;10165;42.662;23.260;2022-09-27T09:53:14;12.73;;;9.97;;
20008;SDS011;10165;42.662;23.260;2022-09-27T09:55:51;14.73;;;11.27;;
20008;SDS011;10165;42.662;23.260;2022-09-27T10:00:52;12.87;;;9.60;;
20008;SDS011;10165;42.662;23.260;2022-09-27T10:03:21;17.00;;;10.57;;
20008;SDS011;10165;42.662;23.260;2022-09-27T10:05:49;12.03;;;9.03;;
20008;SDS011;10165;42.662;23.260;2022-09-27T10:08:17;14.23;;;10.03;;
20008;SDS011;10165;42.662;23.260;2022-09-27T10:10:46;13.60;;;9.47;;
20008;SDS011;10165;42.662;23.260;2022-09-27T10:13:17;10.27;;;8.20;;
20008;SDS011;10165;42.662;23.260;2022-09-27T10:15:58;14.10;;;9.40;;
20008;SDS011;10165;42.662;23.260;2022-09-27T10:18:29;13.73;;;9.13;;
20008;SDS011;10165;42.662;23.260;2022-09-27T10:20:58;12.87;;;9.63;;
20008;SDS011;10165;42.662;23.260;2022-09-27T10:23:29;16.60;;;9.70;;
20008;SDS011;10165;42.662;23.260;2022-09-27T10:25:57;18.60;;;10.43;;
20008;SDS011;10165;42.662;23.260;2022-09-27T10:28:40;14.20;;;9.93;;
20008;SDS011;10165;42.662;23.260;2022-09-27T10:31:13;13.40;;;10.17;;
20008;SDS011;10165;42.662;23.260;2022-09-27T10:36:43;13.83;;;11.20;;
20008;SDS011;10165;42.662;23.260;2022-09-27T10:39:19;15.27;;;11.40;;
20008;SDS011;10165;42.662;23.260;2022-09-27T10:41:49;16.80;;;10.77;;
20008;SDS011;10165;42.662;23.260;2022-09-27T10:46:43;14.23;;;10.20;;
20008;SDS011;10165;42.662;23.260;2022-09-27T10:49:26;15.57;;;10.50;;
20008;SDS011;10165;42.662;23.260;2022-09-27T10:52:00;13.20;;;10.10;;
20008;SDS011;10165;42.662;23.260;2022-09-27T10:54:34;16.03;;;10.47;;
20008;SDS011;10165;42.662;23.260;2022-09-27T10:57:03;13.87;;;9.10;;
20008;SDS011;10165;42.662;23.260;2022-09-27T10:59:33;14.37;;;9.87;;
20008;SDS011;10165;42.662;23.260;2022-09-27T11:02:02;14.10;;;9.93;;
20008;SDS011;10165;42.662;23.260;2022-09-27T11:04:34;14.80;;;9.57;;
20008;SDS011;10165;42.662;23.260;2022-09-27T11:07:16;13.03;;;9.37;;
20008;SDS011;10165;42.662;23.260;2022-09-27T11:09:52;14.73;;;9.60;;
20008;SDS011;10165;42.662;23.260;2022-09-27T11:12:21;11.73;;;8.67;;
20008;SDS011;10165;42.662;23.260;2022-09-27T11:14:52;12.60;;;8.20;;
20008;SDS011;10165;42.662;23.260;2022-09-27T11:17:43;11.77;;;7.47;;
20008;SDS011;10165;42.662;23.260;2022-09-27T11:31:26;10.90;;;7.43;;
20008;SDS011;10165;42.662;23.260;2022-09-27T11:59:51;5.93;;;4.30;;
20008;SDS011;10165;42.662;23.260;2022-09-27T12:10:59;5.00;;;3.30;;
20008;SDS011;10165;42.662;23.260;2022-09-27T12:13:41;3.60;;;2.67;;
20008;SDS011;10165;42.662;23.260;2022-09-27T12:16:14;4.03;;;2.10;;
20008;SDS011;10165;42.662;23.260;2022-09-27T12:18:42;2.90;;;2.50;;
20008;SDS011;10165;42.662;23.260;2022-09-27T12:21:17;7.10;;;3.97;;
20008;SDS011;10165;42.662;23.260;2022-09-27T12:23:46;12.60;;;4.83;;
20008;SDS011;10165;42.662;23.260;2022-09-27T12:26:20;5.47;;;3.40;;
20008;SDS011;10165;42.662;23.260;2022-09-27T12:29:26;3.43;;;3.13;;
20008;SDS011;10165;42.662;23.260;2022-09-27T12:35:17;2.73;;;2.43;;
20008;SDS011;10165;42.662;23.260;2022-09-27T12:37:50;4.10;;;2.43;;
20008;SDS011;10165;42.662;23.260;2022-09-27T12:40:40;2.80;;;2.03;;
20008;SDS011;10165;42.662;23.260;2022-09-27T12:48:35;1.70;;;1.60;;
20008;SDS011;10165;42.662;23.260;2022-09-27T12:59:17;3.33;;;2.50;;
20008;SDS011;10165;42.662;23.260;2022-09-27T13:01:58;4.27;;;2.47;;
20008;SDS011;10165;42.662;23.260;2022-09-27T13:13:16;2.90;;;1.87;;
20008;SDS011;10165;42.662;23.260;2022-09-27T13:15:46;4.80;;;2.60;;
20008;SDS011;10165;42.662;23.260;2022-09-27T13:18:28;3.27;;;1.87;;
20008;SDS011;10165;42.662;23.260;2022-09-27T13:21:01;3.00;;;2.00;;
20008;SDS011;10165;42.662;23.260;2022-09-27T13:26:01;2.70;;;1.83;;
20008;SDS011;10165;42.662;23.260;2022-09-27T13:31:15;2.90;;;2.00;;
20008;SDS011;10165;42.662;23.260;2022-09-27T13:33:43;2.00;;;1.80;;
20008;SDS011;10165;42.662;23.260;2022-09-27T13:47:33;2.83;;;1.53;;
20008;SDS011;10165;42.662;23.260;2022-09-27T13:52:40;1.50;;;1.40;;
20008;SDS011;10165;42.662;23.260;2022-09-27T13:55:53;1.93;;;1.43;;
20008;SDS011;10165;42.662;23.260;2022-09-27T13:58:23;2.53;;;1.40;;
20008;SDS011;10165;42.662;23.260;2022-09-27T14:00:57;3.20;;;1.70;;
20008;SDS011;10165;42.662;23.260;2022-09-27T14:06:16;2.63;;;1.40;;
20008;SDS011;10165;42.662;23.260;2022-09-27T14:08:48;1.57;;;1.47;;
20008;SDS011;10165;42.662;23.260;2022-09-27T14:11:39;2.03;;;1.60;;
20008;SDS011;10165;42.662;23.260;2022-09-27T14:14:13;8.53;;;1.87;;
20008;SDS011;10165;42.662;23.260;2022-09-27T14:16:43;1.70;;;1.40;;
20008;SDS011;10165;42.662;23.260;2022-09-27T14:19:14;11.20;;;1.57;;
20008;SDS011;10165;42.662;23.260;2022-09-27T14:24:45;1.40;;;1.30;;
20008;SDS011;10165;42.662;23.260;2022-09-27T14:27:26;1.60;;;1.43;;
20008;SDS011;10165;42.662;23.260;2022-09-27T14:29:56;1.50;;;1.40;;
20008;SDS011;10165;42.662;23.260;2022-09-27T14:32:24;1.33;;;1.23;;
20008;SDS011;10165;42.662;23.260;2022-09-27T14:37:31;1.40;;;1.30;;
20008;SDS011;10165;42.662;23.260;2022-09-27T14:40:00;4.10;;;1.80;;
20008;SDS011;10165;42.662;23.260;2022-09-27T14:42:34;1.50;;;1.40;;
20008;SDS011;10165;42.662;23.260;2022-09-27T14:45:12;1.77;;;1.60;;
20008;SDS011;10165;42.662;23.260;2022-09-27T14:47:47;2.53;;;1.50;;
20008;SDS011;10165;42.662;23.260;2022-09-27T14:50:26;1.63;;;1.53;;
20008;SDS011;10165;42.662;23.260;2022-09-27T14:52:57;5.57;;;1.77;;
20008;SDS011;10165;42.662;23.260;2022-09-27T14:55:27;1.70;;;1.60;;
20008;SDS011;10165;42.662;23.260;2022-09-27T14:57:59;2.23;;;1.60;;
20008;SDS011;10165;42.662;23.260;2022-09-27T15:00:29;3.73;;;1.57;;
20008;SDS011;10165;42.662;23.260;2022-09-27T15:03:01;5.03;;;1.63;;
20008;SDS011;10165;42.662;23.260;2022-09-27T15:05:31;3.50;;;1.53;;
20008;SDS011;10165;42.662;23.260;2022-09-27T15:08:03;1.87;;;1.10;;
20008;SDS011;10165;42.662;23.260;2022-09-27T15:10:33;4.77;;;1.00;;
20008;SDS011;10165;42.662;23.260;2022-09-27T15:13:01;8.13;;;2.40;;
20008;SDS011;10165;42.662;23.260;2022-09-27T15:15:34;6.23;;;1.80;;
20008;SDS011;10165;42.662;23.260;2022-09-27T15:18:22;3.87;;;1.50;;
20008;SDS011;10165;42.662;23.260;2022-09-27T15:20:55;7.27;;;2.00;;
20008;SDS011;10165;42.662;23.260;2022-09-27T15:23:26;3.10;;;1.57;;
20008;SDS011;10165;42.662;23.260;2022-09-27T15:28:46;1.63;;;1.30;;
20008;SDS011;10165;42.662;23.260;2022-09-27T15:31:15;1.60;;;1.30;;
20008;SDS011;10165;42.662;23.260;2022-09-27T15:33:49;1.47;;;1.37;;
20008;SDS011;10165;42.662;23.260;2022-09-27T15:36:38;1.60;;;1.40;;
20008;SDS011;10165;42.662;23.260;2022-09-27T15:51:36;7.10;;;2.63;;
20008;SDS011;10165;42.662;23.260;2022-09-27T15:54:07;1.80;;;1.37;;
20008;SDS011;10165;42.662;23.260;2022-09-27T15:56:34;4.93;;;2.40;;
20008;SDS011;10165;42.662;23.260;2022-09-27T15:59:01;3.70;;;2.00;;
20008;SDS011;10165;42.662;23.260;2022-09-27T16:01:29;3.37;;;2.20;;
20008;SDS011;10165;42.662;23.260;2022-09-27T16:03:57;3.90;;;2.73;;
20008;SDS011;10165;42.662;23.260;2022-09-27T16:06:25;3.50;;;2.90;;
20008;SDS011;10165;42.662;23.260;2022-09-27T16:08:53;5.50;;;2.83;;
20008;SDS011;10165;42.662;23.260;2022-09-27T16:11:20;7.27;;;3.40;;
20008;SDS011;10165;42.662;23.260;2022-09-27T16:13:47;4.40;;;3.40;;
20008;SDS011;10165;42.662;23.260;2022-09-27T16:16:15;6.60;;;3.97;;
20008;SDS011;10165;42.662;23.260;2022-09-27T16:18:44;10.07;;;3.67;;
20008;SDS011;10165;42.662;23.260;2022-09-27T16:21:11;5.50;;;4.80;;
20008;SDS011;10165;42.662;23.260;2022-09-27T16:23:38;8.33;;;5.73;;
20008;SDS011;10165;42.662;23.260;2022-09-27T16:26:05;7.97;;;4.97;;
20008;SDS011;10165;42.662;23.260;2022-09-27T16:28:33;8.70;;;4.80;;
20008;SDS011;10165;42.662;23.260;2022-09-27T16:31:09;6.80;;;3.40;;
20008;SDS011;10165;42.662;23.260;2022-09-27T16:33:46;10.50;;;5.10;;
20008;SDS011;10165;42.662;23.260;2022-09-27T16:36:20;6.10;;;3.20;;
20008;SDS011;10165;42.662;23.260;2022-09-27T16:38:48;9.17;;;4.87;;
20008;SDS011;10165;42.662;23.260;2022-09-27T16:41:17;6.43;;;2.77;;
20008;SDS011;10165;42.662;23.260;2022-09-27T16:43:44;3.43;;;2.67;;
20008;SDS011;10165;42.662;23.260;2022-09-27T16:46:11;6.93;;;3.00;;
20008;SDS011;10165;42.662;23.260;2022-09-27T16:48:44;5.27;;;3.20;;
20008;SDS011;10165;42.662;23.260;2022-09-27T16:51:14;7.80;;;3.20;;
20008;SDS011;10165;42.662;23.260;2022-09-27T16:54:00;6.60;;;3.93;;
20008;SDS011;10165;42.662;23.260;2022-09-27T16:56:27;4.83;;;3.90;;
20008;SDS011;10165;42.662;23.260;2022-09-27T16:58:54;69.87;;;40.27;;
20008;SDS011;10165;42.662;23.260;2022-09-27T17:01:21;36.90;;;21.57;;
20008;SDS011;10165;42.662;23.260;2022-09-27T17:03:48;22.13;;;14.13;;
20008;SDS011;10165;42.662;23.260;2022-09-27T17:06:22;117.87;;;51.43;;
20008;SDS011;10165;42.662;23.260;2022-09-27T17:08:49;13.53;;;8.90;;
20008;SDS011;10165;42.662;23.260;2022-09-27T17:11:17;10.83;;;8.40;;
20008;SDS011;10165;42.662;23.260;2022-09-27T17:13:44;7.70;;;6.90;;
20008;SDS011;10165;42.662;23.260;2022-09-27T17:16:12;7.50;;;6.53;;
20008;SDS011;10165;42.662;23.260;2022-09-27T17:18:40;7.13;;;4.30;;
20008;SDS011;10165;42.662;23.260;2022-09-27T17:21:07;5.30;;;3.97;;
20008;SDS011;10165;42.662;23.260;2022-09-27T17:23:34;6.33;;;2.70;;
20008;SDS011;10165;42.662;23.260;2022-09-27T17:26:02;5.30;;;4.37;;
20008;SDS011;10165;42.662;23.260;2022-09-27T17:28:29;3.67;;;3.03;;
20008;SDS011;10165;42.662;23.260;2022-09-27T17:31:03;5.30;;;2.40;;
20008;SDS011;10165;42.662;23.260;2022-09-27T17:33:34;3.03;;;2.63;;
20008;SDS011;10165;42.662;23.260;2022-09-27T17:36:07;3.80;;;2.67;;
20008;SDS011;10165;42.662;23.260;2022-09-27T17:38:34;4.50;;;3.17;;
20008;SDS011;10165;42.662;23.260;2022-09-27T17:41:02;5.40;;;2.93;;
20008;SDS011;10165;42.662;23.260;2022-09-27T17:43:30;6.43;;;3.80;;
20008;SDS011;10165;42.662;23.260;2022-09-27T17:46:06;4.73;;;4.20;;
20008;SDS011;10165;42.662;23.260;2022-09-27T17:48:35;7.37;;;4.60;;
20008;SDS011;10165;42.662;23.260;2022-09-27T17:51:20;17.40;;;7.90;;
20008;SDS011;10165;42.662;23.260;2022-09-27T17:53:48;6.97;;;4.57;;
20008;SDS011;10165;42.662;23.260;2022-09-27T17:56:15;7.87;;;4.70;;
20008;SDS011;10165;42.662;23.260;2022-09-27T17:58:46;5.30;;;3.90;;
20008;SDS011;10165;42.662;23.260;2022-09-27T18:01:14;6.90;;;3.87;;
20008;SDS011;10165;42.662;23.260;2022-09-27T18:03:42;3.77;;;3.37;;
20008;SDS011;10165;42.662;23.260;2022-09-27T18:06:10;4.23;;;3.63;;
20008;SDS011;10165;42.662;23.260;2022-09-27T18:08:38;5.07;;;3.70;;